sensor_id;sensor_type;location;lat;lon;timestamp;temperature;humidity
41678;DHT22;27364;49.026;8.712;2022-09-28T00:01:25;10.20;99.90
41678;DHT22;27364;49.026;8.712;2022-09-28T00:03:55;10.20;99.90
41678;DHT22;27364;49.026;8.712;2022-09-28T00:06:24;10.20;99.90
41678;DHT22;27364;49.026;8.712;2022-09-28T00:08:50;10.20;99.90
41678;DHT22;27364;49.026;8.712;2022-09-28T00:11:16;10.20;99.90
41678;DHT22;27364;49.026;8.712;2022-09-28T00:13:43;10.10;99.90
41678;DHT22;27364;49.026;8.712;2022-09-28T00:16:14;10.10;99.90
41678;DHT22;27364;49.026;8.712;2022-09-28T00:18:41;10.10;99.90
41678;DHT22;27364;49.026;8.712;2022-09-28T00:21:07;10.10;99.90
41678;DHT22;27364;49.026;8.712;2022-09-28T00:23:33;10.10;99.90
41678;DHT22;27364;49.026;8.712;2022-09-28T00:26:05;10.20;99.90
41678;DHT22;27364;49.026;8.712;2022-09-28T00:28:31;10.10;99.90
41678;DHT22;27364;49.026;8.712;2022-09-28T00:30:57;10.10;99.90
41678;DHT22;27364;49.026;8.712;2022-09-28T00:33:23;10.10;99.90
41678;DHT22;27364;49.026;8.712;2022-09-28T00:35:57;10.10;99.90
41678;DHT22;27364;49.026;8.712;2022-09-28T00:38:29;10.10;99.90
41678;DHT22;27364;49.026;8.712;2022-09-28T00:40:54;10.00;99.90
41678;DHT22;27364;49.026;8.712;2022-09-28T00:43:20;10.00;99.90
41678;DHT22;27364;49.026;8.712;2022-09-28T00:46:32;10.00;99.90
41678;DHT22;27364;49.026;8.712;2022-09-28T00:48:33;10.00;99.90
41678;DHT22;27364;49.026;8.712;2022-09-28T00:51:00;10.10;99.90
41678;DHT22;27364;49.026;8.712;2022-09-28T00:53:29;10.10;99.90
41678;DHT22;27364;49.026;8.712;2022-09-28T00:55:56;10.10;99.90
41678;DHT22;27364;49.026;8.712;2022-09-28T00:58:31;10.10;99.90
41678;DHT22;27364;49.026;8.712;2022-09-28T01:00:59;10.00;99.90
41678;DHT22;27364;49.026;8.712;2022-09-28T01:03:25;10.10;99.90
41678;DHT22;27364;49.026;8.712;2022-09-28T01:05:52;10.00;99.90
41678;DHT22;27364;49.026;8.712;2022-09-28T01:08:19;10.10;99.90
41678;DHT22;27364;49.026;8.712;2022-09-28T01:10:46;10.10;99.90
41678;DHT22;27364;49.026;8.712;2022-09-28T01:13:12;10.20;99.90
41678;DHT22;27364;49.026;8.712;2022-09-28T01:15:40;10.10;99.90
41678;DHT22;27364;49.026;8.712;2022-09-28T01:25:38;10.10;99.90
41678;DHT22;27364;49.026;8.712;2022-09-28T01:28:11;10.10;99.90
41678;DHT22;27364;49.026;8.712;2022-09-28T01:30:43;10.00;99.90
41678;DHT22;27364;49.026;8.712;2022-09-28T01:33:11;10.00;99.90
41678;DHT22;27364;49.026;8.712;2022-09-28T01:38:27;10.00;99.90
41678;DHT22;27364;49.026;8.712;2022-09-28T01:40:55;10.00;99.90
41678;DHT22;27364;49.026;8.712;2022-09-28T01:43:24;10.00;99.90
41678;DHT22;27364;49.026;8.712;2022-09-28T01:46:10;10.00;99.90
41678;DHT22;27364;49.026;8.712;2022-09-28T01:48:44;10.00;99.90
41678;DHT22;27364;49.026;8.712;2022-09-28T01:51:15;10.00;99.90
41678;DHT22;27364;49.026;8.712;2022-09-28T01:53:44;10.00;99.90
41678;DHT22;27364;49.026;8.712;2022-09-28T01:56:22;9.90;99.90
41678;DHT22;27364;49.026;8.712;2022-09-28T01:58:59;9.90;99.90
41678;DHT22;27364;49.026;8.712;2022-09-28T02:01:28;9.90;99.90
41678;DHT22;27364;49.026;8.712;2022-09-28T02:04:00;9.90;99.90
41678;DHT22;27364;49.026;8.712;2022-09-28T02:06:30;9.90;99.90
41678;DHT22;27364;49.026;8.712;2022-09-28T02:08:59;9.90;99.90
41678;DHT22;27364;49.026;8.712;2022-09-28T02:11:28;9.90;99.90
41678;DHT22;27364;49.026;8.712;2022-09-28T02:13:55;9.90;99.90
41678;DHT22;27364;49.026;8.712;2022-09-28T02:16:30;9.90;99.90
41678;DHT22;27364;49.026;8.712;2022-09-28T02:18:57;10.00;99.90
41678;DHT22;27364;49.026;8.712;2022-09-28T02:23:51;10.00;99.90
41678;DHT22;27364;49.026;8.712;2022-09-28T02:26:18;10.00;99.90
41678;DHT22;27364;49.026;8.712;2022-09-28T02:28:45;10.00;99.90
41678;DHT22;27364;49.026;8.712;2022-09-28T02:31:10;10.00;99.90
41678;DHT22;27364;49.026;8.712;2022-09-28T02:33:36;10.00;99.90
41678;DHT22;27364;49.026;8.712;2022-09-28T02:36:02;9.90;99.90
41678;DHT22;27364;49.026;8.712;2022-09-28T02:38:29;10.00;99.90
41678;DHT22;27364;49.026;8.712;2022-09-28T02:48:59;10.20;99.90
41678;DHT22;27364;49.026;8.712;2022-09-28T02:56:46;10.20;99.90
41678;DHT22;27364;49.026;8.712;2022-09-28T03:01:46;10.20;99.90
41678;DHT22;27364;49.026;8.712;2022-09-28T03:10:00;10.20;99.90
41678;DHT22;27364;49.026;8.712;2022-09-28T03:12:27;10.10;99.90
41678;DHT22;27364;49.026;8.712;2022-09-28T03:15:18;10.10;99.90
41678;DHT22;27364;49.026;8.712;2022-09-28T03:17:44;10.10;99.90
41678;DHT22;27364;49.026;8.712;2022-09-28T03:20:09;10.10;99.90
41678;DHT22;27364;49.026;8.712;2022-09-28T03:22:35;10.10;99.90
41678;DHT22;27364;49.026;8.712;2022-09-28T03:25:01;10.10;99.90
41678;DHT22;27364;49.026;8.712;2022-09-28T03:27:27;10.20;99.90
41678;DHT22;27364;49.026;8.712;2022-09-28T03:29:54;10.10;99.90
41678;DHT22;27364;49.026;8.712;2022-09-28T03:32:20;10.10;99.90
41678;DHT22;27364;49.026;8.712;2022-09-28T03:34:45;10.10;99.90
41678;DHT22;27364;49.026;8.712;2022-09-28T03:37:11;10.10;99.90
41678;DHT22;27364;49.026;8.712;2022-09-28T03:39:36;10.10;99.90
41678;DHT22;27364;49.026;8.712;2022-09-28T03:42:02;10.10;99.90
41678;DHT22;27364;49.026;8.712;2022-09-28T03:44:27;10.10;99.90
41678;DHT22;27364;49.026;8.712;2022-09-28T03:46:53;10.00;99.90
41678;DHT22;27364;49.026;8.712;2022-09-28T03:49:18;10.00;99.90
41678;DHT22;27364;49.026;8.712;2022-09-28T03:51:44;10.10;99.90
41678;DHT22;27364;49.026;8.712;2022-09-28T03:54:09;10.10;99.90
41678;DHT22;27364;49.026;8.712;2022-09-28T03:56:35;10.00;99.90
41678;DHT22;27364;49.026;8.712;2022-09-28T03:59:03;10.00;99.90
41678;DHT22;27364;49.026;8.712;2022-09-28T04:01:29;10.10;99.90
41678;DHT22;27364;49.026;8.712;2022-09-28T04:03:55;10.00;99.90
41678;DHT22;27364;49.026;8.712;2022-09-28T04:06:21;10.00;99.90
41678;DHT22;27364;49.026;8.712;2022-09-28T04:08:46;10.10;99.90
41678;DHT22;27364;49.026;8.712;2022-09-28T04:11:12;10.00;99.90
41678;DHT22;27364;49.026;8.712;2022-09-28T04:13:37;10.00;99.90
41678;DHT22;27364;49.026;8.712;2022-09-28T04:16:03;10.00;99.90
41678;DHT22;27364;49.026;8.712;2022-09-28T04:18:31;10.00;99.90
41678;DHT22;27364;49.026;8.712;2022-09-28T04:20:59;10.00;99.90
41678;DHT22;27364;49.026;8.712;2022-09-28T04:23:28;10.10;99.90
41678;DHT22;27364;49.026;8.712;2022-09-28T04:25:53;10.00;99.90
41678;DHT22;27364;49.026;8.712;2022-09-28T04:28:19;10.00;99.90
41678;DHT22;27364;49.026;8.712;2022-09-28T04:31:06;9.90;99.90
41678;DHT22;27364;49.026;8.712;2022-09-28T04:33:32;9.90;99.90
41678;DHT22;27364;49.026;8.712;2022-09-28T04:35:59;9.90;99.90
41678;DHT22;27364;49.026;8.712;2022-09-28T04:38:24;9.90;99.90
41678;DHT22;27364;49.026;8.712;2022-09-28T04:40:50;9.90;99.90
41678;DHT22;27364;49.026;8.712;2022-09-28T04:43:15;9.90;99.90
41678;DHT22;27364;49.026;8.712;2022-09-28T04:45:41;9.90;99.90
41678;DHT22;27364;49.026;8.712;2022-09-28T04:48:06;9.90;99.90
41678;DHT22;27364;49.026;8.712;2022-09-28T04:50:32;9.90;99.90
41678;DHT22;27364;49.026;8.712;2022-09-28T04:52:59;10.00;99.90
41678;DHT22;27364;49.026;8.712;2022-09-28T04:55:24;9.90;99.90
41678;DHT22;27364;49.026;8.712;2022-09-28T04:57:50;9.90;99.90
41678;DHT22;27364;49.026;8.712;2022-09-28T05:00:15;9.90;99.90
41678;DHT22;27364;49.026;8.712;2022-09-28T05:02:41;9.90;99.90
41678;DHT22;27364;49.026;8.712;2022-09-28T05:05:07;9.90;99.90
41678;DHT22;27364;49.026;8.712;2022-09-28T05:07:32;9.90;99.90
41678;DHT22;27364;49.026;8.712;2022-09-28T05:09:58;9.90;99.90
41678;DHT22;27364;49.026;8.712;2022-09-28T05:12:25;9.90;99.90
41678;DHT22;27364;49.026;8.712;2022-09-28T05:14:51;9.80;99.90
41678;DHT22;27364;49.026;8.712;2022-09-28T05:17:16;9.90;99.90
41678;DHT22;27364;49.026;8.712;2022-09-28T05:19:42;9.90;99.90
41678;DHT22;27364;49.026;8.712;2022-09-28T05:22:07;10.00;99.90
41678;DHT22;27364;49.026;8.712;2022-09-28T05:24:39;9.90;99.90
41678;DHT22;27364;49.026;8.712;2022-09-28T05:27:04;9.90;99.90
41678;DHT22;27364;49.026;8.712;2022-09-28T05:29:30;9.90;99.90
41678;DHT22;27364;49.026;8.712;2022-09-28T05:31:55;9.90;99.90
41678;DHT22;27364;49.026;8.712;2022-09-28T05:34:21;9.90;99.90
41678;DHT22;27364;49.026;8.712;2022-09-28T05:36:46;9.90;99.90
41678;DHT22;27364;49.026;8.712;2022-09-28T05:39:12;9.80;99.90
41678;DHT22;27364;49.026;8.712;2022-09-28T05:41:37;9.90;99.90
41678;DHT22;27364;49.026;8.712;2022-09-28T05:44:03;9.90;99.90
41678;DHT22;27364;49.026;8.712;2022-09-28T05:46:28;9.90;99.90
41678;DHT22;27364;49.026;8.712;2022-09-28T05:48:54;9.90;99.90
41678;DHT22;27364;49.026;8.712;2022-09-28T05:51:19;10.00;99.90
41678;DHT22;27364;49.026;8.712;2022-09-28T05:53:45;10.00;99.90
41678;DHT22;27364;49.026;8.712;2022-09-28T05:56:11;9.90;99.90
41678;DHT22;27364;49.026;8.712;2022-09-28T05:58:36;9.90;99.90
41678;DHT22;27364;49.026;8.712;2022-09-28T06:01:02;10.00;99.90
41678;DHT22;27364;49.026;8.712;2022-09-28T06:03:27;10.00;99.90
41678;DHT22;27364;49.026;8.712;2022-09-28T06:05:53;10.00;99.90
41678;DHT22;27364;49.026;8.712;2022-09-28T06:08:18;10.00;99.90
41678;DHT22;27364;49.026;8.712;2022-09-28T06:10:44;10.00;99.90
41678;DHT22;27364;49.026;8.712;2022-09-28T06:13:09;10.00;99.90
41678;DHT22;27364;49.026;8.712;2022-09-28T06:15:37;10.10;99.90
41678;DHT22;27364;49.026;8.712;2022-09-28T06:20:29;10.10;99.90
41678;DHT22;27364;49.026;8.712;2022-09-28T06:22:55;10.10;99.90
41678;DHT22;27364;49.026;8.712;2022-09-28T06:25:21;10.10;99.90
41678;DHT22;27364;49.026;8.712;2022-09-28T06:27:54;10.00;99.90
41678;DHT22;27364;49.026;8.712;2022-09-28T06:30:19;10.10;99.90
41678;DHT22;27364;49.026;8.712;2022-09-28T06:32:45;10.10;99.90
41678;DHT22;27364;49.026;8.712;2022-09-28T06:35:10;10.10;99.90
41678;DHT22;27364;49.026;8.712;2022-09-28T06:37:36;10.20;99.90
41678;DHT22;27364;49.026;8.712;2022-09-28T06:40:01;10.10;99.90
41678;DHT22;27364;49.026;8.712;2022-09-28T06:42:27;10.10;99.90
41678;DHT22;27364;49.026;8.712;2022-09-28T06:44:52;10.10;99.90
41678;DHT22;27364;49.026;8.712;2022-09-28T06:47:18;10.10;99.90
41678;DHT22;27364;49.026;8.712;2022-09-28T06:49:43;10.10;99.90
41678;DHT22;27364;49.026;8.712;2022-09-28T06:52:11;10.10;99.90
41678;DHT22;27364;49.026;8.712;2022-09-28T06:54:37;10.10;99.90
41678;DHT22;27364;49.026;8.712;2022-09-28T06:57:03;10.10;99.90
41678;DHT22;27364;49.026;8.712;2022-09-28T06:59:28;10.20;99.90
41678;DHT22;27364;49.026;8.712;2022-09-28T07:01:54;10.20;99.90
41678;DHT22;27364;49.026;8.712;2022-09-28T07:04:19;10.20;99.90
41678;DHT22;27364;49.026;8.712;2022-09-28T07:06:46;10.20;99.90
41678;DHT22;27364;49.026;8.712;2022-09-28T07:09:12;10.20;99.90
41678;DHT22;27364;49.026;8.712;2022-09-28T07:11:37;10.20;99.90
41678;DHT22;27364;49.026;8.712;2022-09-28T07:14:06;10.20;99.90
41678;DHT22;27364;49.026;8.712;2022-09-28T07:16:33;10.30;99.90
41678;DHT22;27364;49.026;8.712;2022-09-28T07:18:59;10.30;99.90
41678;DHT22;27364;49.026;8.712;2022-09-28T07:21:24;10.30;99.90
41678;DHT22;27364;49.026;8.712;2022-09-28T07:23:50;10.20;99.90
41678;DHT22;27364;49.026;8.712;2022-09-28T07:26:17;10.30;99.90
41678;DHT22;27364;49.026;8.712;2022-09-28T07:28:44;10.30;99.90
41678;DHT22;27364;49.026;8.712;2022-09-28T07:31:11;10.30;99.90
41678;DHT22;27364;49.026;8.712;2022-09-28T07:33:36;10.30;99.90
41678;DHT22;27364;49.026;8.712;2022-09-28T07:36:02;10.30;99.90
41678;DHT22;27364;49.026;8.712;2022-09-28T07:38:31;10.30;99.90
41678;DHT22;27364;49.026;8.712;2022-09-28T07:40:57;10.30;99.90
41678;DHT22;27364;49.026;8.712;2022-09-28T07:43:39;10.30;99.90
41678;DHT22;27364;49.026;8.712;2022-09-28T07:46:05;10.30;99.90
41678;DHT22;27364;49.026;8.712;2022-09-28T07:48:38;10.40;99.90
41678;DHT22;27364;49.026;8.712;2022-09-28T07:51:03;10.50;99.90
41678;DHT22;27364;49.026;8.712;2022-09-28T07:53:29;10.50;99.90
41678;DHT22;27364;49.026;8.712;2022-09-28T07:55:57;10.50;99.90
41678;DHT22;27364;49.026;8.712;2022-09-28T07:58:29;10.60;99.90
41678;DHT22;27364;49.026;8.712;2022-09-28T08:00:57;10.60;99.90
41678;DHT22;27364;49.026;8.712;2022-09-28T08:03:25;10.50;99.90
41678;DHT22;27364;49.026;8.712;2022-09-28T08:05:56;10.50;99.90
41678;DHT22;27364;49.026;8.712;2022-09-28T08:08:21;10.60;99.90
41678;DHT22;27364;49.026;8.712;2022-09-28T08:10:47;10.60;99.90
41678;DHT22;27364;49.026;8.712;2022-09-28T08:13:12;10.60;99.90
41678;DHT22;27364;49.026;8.712;2022-09-28T08:15:39;10.70;99.90
41678;DHT22;27364;49.026;8.712;2022-09-28T08:18:05;10.70;99.90
41678;DHT22;27364;49.026;8.712;2022-09-28T08:20:31;10.80;99.90
41678;DHT22;27364;49.026;8.712;2022-09-28T08:23:14;10.70;99.90
41678;DHT22;27364;49.026;8.712;2022-09-28T08:25:44;10.70;99.90
41678;DHT22;27364;49.026;8.712;2022-09-28T08:28:11;10.80;99.90
41678;DHT22;27364;49.026;8.712;2022-09-28T08:30:37;10.90;99.90
41678;DHT22;27364;49.026;8.712;2022-09-28T08:33:02;10.80;99.90
41678;DHT22;27364;49.026;8.712;2022-09-28T08:35:28;10.80;99.90
41678;DHT22;27364;49.026;8.712;2022-09-28T08:37:53;10.80;99.90
41678;DHT22;27364;49.026;8.712;2022-09-28T08:40:20;10.80;99.90
41678;DHT22;27364;49.026;8.712;2022-09-28T08:42:49;10.90;99.90
41678;DHT22;27364;49.026;8.712;2022-09-28T08:45:19;11.00;99.90
41678;DHT22;27364;49.026;8.712;2022-09-28T08:50:53;11.00;99.90
41678;DHT22;27364;49.026;8.712;2022-09-28T08:56:06;11.10;99.90
41678;DHT22;27364;49.026;8.712;2022-09-28T08:58:36;11.00;99.90
41678;DHT22;27364;49.026;8.712;2022-09-28T09:01:04;11.00;99.90
41678;DHT22;27364;49.026;8.712;2022-09-28T09:03:33;10.90;99.90
41678;DHT22;27364;49.026;8.712;2022-09-28T09:08:29;11.00;99.90
41678;DHT22;27364;49.026;8.712;2022-09-28T09:16:15;10.80;99.90
41678;DHT22;27364;49.026;8.712;2022-09-28T09:24:22;10.80;99.90
41678;DHT22;27364;49.026;8.712;2022-09-28T09:26:53;10.80;99.90
41678;DHT22;27364;49.026;8.712;2022-09-28T09:29:26;10.80;99.90
41678;DHT22;27364;49.026;8.712;2022-09-28T09:39:50;10.80;99.90
41678;DHT22;27364;49.026;8.712;2022-09-28T09:47:14;11.10;99.90
41678;DHT22;27364;49.026;8.712;2022-09-28T09:55:06;11.30;99.90
41678;DHT22;27364;49.026;8.712;2022-09-28T09:57:42;11.30;99.90
41678;DHT22;27364;49.026;8.712;2022-09-28T10:00:09;11.40;99.90
41678;DHT22;27364;49.026;8.712;2022-09-28T10:02:37;11.40;99.90
41678;DHT22;27364;49.026;8.712;2022-09-28T10:07:38;11.60;99.90
41678;DHT22;27364;49.026;8.712;2022-09-28T10:10:10;11.70;99.90
41678;DHT22;27364;49.026;8.712;2022-09-28T10:12:35;11.80;99.90
41678;DHT22;27364;49.026;8.712;2022-09-28T10:15:02;12.00;99.90
41678;DHT22;27364;49.026;8.712;2022-09-28T10:17:31;12.30;99.90
41678;DHT22;27364;49.026;8.712;2022-09-28T10:19:58;12.40;99.90
41678;DHT22;27364;49.026;8.712;2022-09-28T10:22:25;12.40;99.90
41678;DHT22;27364;49.026;8.712;2022-09-28T10:24:53;12.40;99.90
41678;DHT22;27364;49.026;8.712;2022-09-28T10:27:28;12.50;99.90
41678;DHT22;27364;49.026;8.712;2022-09-28T10:32:36;12.50;99.90
41678;DHT22;27364;49.026;8.712;2022-09-28T10:40:26;12.70;99.90
41678;DHT22;27364;49.026;8.712;2022-09-28T10:45:38;12.80;99.90
41678;DHT22;27364;49.026;8.712;2022-09-28T10:48:04;12.90;99.90
41678;DHT22;27364;49.026;8.712;2022-09-28T10:50:30;13.00;99.90
41678;DHT22;27364;49.026;8.712;2022-09-28T10:53:09;12.90;99.90
41678;DHT22;27364;49.026;8.712;2022-09-28T10:55:35;13.10;99.90
41678;DHT22;27364;49.026;8.712;2022-09-28T10:58:16;13.20;99.90
41678;DHT22;27364;49.026;8.712;2022-09-28T11:00:47;13.30;99.90
41678;DHT22;27364;49.026;8.712;2022-09-28T11:03:17;13.30;99.90
41678;DHT22;27364;49.026;8.712;2022-09-28T11:05:51;13.60;99.90
41678;DHT22;27364;49.026;8.712;2022-09-28T11:08:18;13.50;99.90
41678;DHT22;27364;49.026;8.712;2022-09-28T11:10:46;13.60;99.90
41678;DHT22;27364;49.026;8.712;2022-09-28T11:13:11;13.50;99.90
41678;DHT22;27364;49.026;8.712;2022-09-28T11:15:39;13.50;99.90
41678;DHT22;27364;49.026;8.712;2022-09-28T11:18:22;13.50;99.90
41678;DHT22;27364;49.026;8.712;2022-09-28T11:20:49;13.40;99.90
41678;DHT22;27364;49.026;8.712;2022-09-28T11:25:40;13.40;99.90
41678;DHT22;27364;49.026;8.712;2022-09-28T11:28:12;13.40;99.90
41678;DHT22;27364;49.026;8.712;2022-09-28T11:30:48;13.30;99.90
41678;DHT22;27364;49.026;8.712;2022-09-28T11:33:16;13.30;99.90
41678;DHT22;27364;49.026;8.712;2022-09-28T11:35:45;13.40;99.90
41678;DHT22;27364;49.026;8.712;2022-09-28T11:43:08;13.70;99.90
41678;DHT22;27364;49.026;8.712;2022-09-28T11:48:15;14.10;99.90
41678;DHT22;27364;49.026;8.712;2022-09-28T11:50:45;14.10;99.90
41678;DHT22;27364;49.026;8.712;2022-09-28T11:55:46;13.80;99.90
41678;DHT22;27364;49.026;8.712;2022-09-28T11:58:26;13.80;99.90
41678;DHT22;27364;49.026;8.712;2022-09-28T12:00:55;13.70;99.90
41678;DHT22;27364;49.026;8.712;2022-09-28T12:03:23;13.60;99.90
41678;DHT22;27364;49.026;8.712;2022-09-28T12:05:50;13.70;99.90
41678;DHT22;27364;49.026;8.712;2022-09-28T12:08:27;13.70;99.90
41678;DHT22;27364;49.026;8.712;2022-09-28T12:11:02;13.70;99.90
41678;DHT22;27364;49.026;8.712;2022-09-28T12:13:32;13.60;99.90
41678;DHT22;27364;49.026;8.712;2022-09-28T12:16:34;13.60;99.90
41678;DHT22;27364;49.026;8.712;2022-09-28T12:19:03;13.60;99.90
41678;DHT22;27364;49.026;8.712;2022-09-28T12:21:32;13.50;99.90
41678;DHT22;27364;49.026;8.712;2022-09-28T12:29:11;13.40;99.90
41678;DHT22;27364;49.026;8.712;2022-09-28T12:34:19;13.70;99.90
41678;DHT22;27364;49.026;8.712;2022-09-28T12:37:07;13.60;99.90
41678;DHT22;27364;49.026;8.712;2022-09-28T12:39:55;13.70;99.90
41678;DHT22;27364;49.026;8.712;2022-09-28T12:42:30;13.50;99.90
41678;DHT22;27364;49.026;8.712;2022-09-28T12:45:11;13.50;99.90
41678;DHT22;27364;49.026;8.712;2022-09-28T12:50:36;13.50;99.90
41678;DHT22;27364;49.026;8.712;2022-09-28T12:53:18;13.70;99.90
41678;DHT22;27364;49.026;8.712;2022-09-28T12:55:59;13.90;99.90
41678;DHT22;27364;49.026;8.712;2022-09-28T12:58:32;14.10;99.90
41678;DHT22;27364;49.026;8.712;2022-09-28T13:19:28;13.80;99.90
41678;DHT22;27364;49.026;8.712;2022-09-28T13:24:35;14.00;99.90
41678;DHT22;27364;49.026;8.712;2022-09-28T13:27:04;14.40;99.90
41678;DHT22;27364;49.026;8.712;2022-09-28T13:29:33;14.70;99.90
41678;DHT22;27364;49.026;8.712;2022-09-28T13:31:59;15.00;99.90
41678;DHT22;27364;49.026;8.712;2022-09-28T13:34:26;15.10;99.90
41678;DHT22;27364;49.026;8.712;2022-09-28T13:39:37;14.60;99.90
41678;DHT22;27364;49.026;8.712;2022-09-28T13:42:11;14.40;99.90
41678;DHT22;27364;49.026;8.712;2022-09-28T13:44:55;14.10;99.90
41678;DHT22;27364;49.026;8.712;2022-09-28T13:52:44;13.60;99.90
41678;DHT22;27364;49.026;8.712;2022-09-28T13:55:32;13.50;99.90
41678;DHT22;27364;49.026;8.712;2022-09-28T13:58:02;13.50;99.90
41678;DHT22;27364;49.026;8.712;2022-09-28T14:05:53;13.90;99.90
41678;DHT22;27364;49.026;8.712;2022-09-28T14:08:35;14.10;99.90
41678;DHT22;27364;49.026;8.712;2022-09-28T14:16:24;14.00;99.90
41678;DHT22;27364;49.026;8.712;2022-09-28T14:21:32;13.80;99.90
41678;DHT22;27364;49.026;8.712;2022-09-28T14:29:25;13.50;99.90
41678;DHT22;27364;49.026;8.712;2022-09-28T14:31:56;13.50;99.90
41678;DHT22;27364;49.026;8.712;2022-09-28T14:34:42;13.30;99.90
41678;DHT22;27364;49.026;8.712;2022-09-28T14:37:20;13.30;99.90
41678;DHT22;27364;49.026;8.712;2022-09-28T14:53:49;13.30;99.90
41678;DHT22;27364;49.026;8.712;2022-09-28T14:56:14;13.30;99.90
41678;DHT22;27364;49.026;8.712;2022-09-28T14:58:40;13.40;99.90
41678;DHT22;27364;49.026;8.712;2022-09-28T15:01:11;13.30;99.90
41678;DHT22;27364;49.026;8.712;2022-09-28T15:03:41;13.30;99.90
41678;DHT22;27364;49.026;8.712;2022-09-28T15:06:13;13.20;99.90
41678;DHT22;27364;49.026;8.712;2022-09-28T15:08:40;13.30;99.90
41678;DHT22;27364;49.026;8.712;2022-09-28T15:11:07;13.50;99.90
41678;DHT22;27364;49.026;8.712;2022-09-28T15:13:34;13.60;99.90
41678;DHT22;27364;49.026;8.712;2022-09-28T15:21:10;13.50;99.90
41678;DHT22;27364;49.026;8.712;2022-09-28T15:23:37;13.30;99.90
41678;DHT22;27364;49.026;8.712;2022-09-28T15:26:04;13.30;99.90
41678;DHT22;27364;49.026;8.712;2022-09-28T15:28:32;13.30;99.90
41678;DHT22;27364;49.026;8.712;2022-09-28T15:31:02;13.20;99.90
41678;DHT22;27364;49.026;8.712;2022-09-28T15:33:29;13.30;99.90
41678;DHT22;27364;49.026;8.712;2022-09-28T15:36:15;13.20;99.90
41678;DHT22;27364;49.026;8.712;2022-09-28T15:38:45;13.00;99.90
41678;DHT22;27364;49.026;8.712;2022-09-28T15:41:14;12.90;99.90
41678;DHT22;27364;49.026;8.712;2022-09-28T15:43:39;12.80;99.90
41678;DHT22;27364;49.026;8.712;2022-09-28T15:46:06;12.80;99.90
41678;DHT22;27364;49.026;8.712;2022-09-28T15:48:37;12.80;99.90
41678;DHT22;27364;49.026;8.712;2022-09-28T15:51:06;12.90;99.90
41678;DHT22;27364;49.026;8.712;2022-09-28T15:53:56;12.80;99.90
41678;DHT22;27364;49.026;8.712;2022-09-28T15:56:22;12.80;99.90
41678;DHT22;27364;49.026;8.712;2022-09-28T16:01:37;12.70;99.90
41678;DHT22;27364;49.026;8.712;2022-09-28T16:07:16;12.60;99.90
41678;DHT22;27364;49.026;8.712;2022-09-28T16:09:58;12.60;99.90
41678;DHT22;27364;49.026;8.712;2022-09-28T16:12:44;12.60;99.90
41678;DHT22;27364;49.026;8.712;2022-09-28T16:15:13;12.60;99.90
41678;DHT22;27364;49.026;8.712;2022-09-28T16:17:42;12.50;99.90
41678;DHT22;27364;49.026;8.712;2022-09-28T16:22:45;12.40;99.90
41678;DHT22;27364;49.026;8.712;2022-09-28T16:25:15;12.40;99.90
41678;DHT22;27364;49.026;8.712;2022-09-28T16:27:42;12.30;99.90
41678;DHT22;27364;49.026;8.712;2022-09-28T16:37:42;12.10;99.90
41678;DHT22;27364;49.026;8.712;2022-09-28T16:40:09;12.10;99.90
41678;DHT22;27364;49.026;8.712;2022-09-28T16:42:35;12.10;99.90
41678;DHT22;27364;49.026;8.712;2022-09-28T16:45:02;12.10;99.90
41678;DHT22;27364;49.026;8.712;2022-09-28T16:47:29;12.00;99.90
41678;DHT22;27364;49.026;8.712;2022-09-28T16:49:58;12.00;99.90
41678;DHT22;27364;49.026;8.712;2022-09-28T16:52:25;11.90;99.90
41678;DHT22;27364;49.026;8.712;2022-09-28T16:55:09;11.90;99.90
41678;DHT22;27364;49.026;8.712;2022-09-28T16:57:44;12.00;99.90
41678;DHT22;27364;49.026;8.712;2022-09-28T17:00:13;11.80;99.90
41678;DHT22;27364;49.026;8.712;2022-09-28T17:02:40;11.80;99.90
41678;DHT22;27364;49.026;8.712;2022-09-28T17:05:06;11.80;99.90
41678;DHT22;27364;49.026;8.712;2022-09-28T17:07:31;11.90;99.90
41678;DHT22;27364;49.026;8.712;2022-09-28T17:09:57;11.80;99.90
41678;DHT22;27364;49.026;8.712;2022-09-28T17:12:23;11.80;99.90
41678;DHT22;27364;49.026;8.712;2022-09-28T17:14:48;11.70;99.90
41678;DHT22;27364;49.026;8.712;2022-09-28T17:17:14;11.70;99.90
41678;DHT22;27364;49.026;8.712;2022-09-28T17:19:39;11.70;99.90
41678;DHT22;27364;49.026;8.712;2022-09-28T17:22:05;11.60;99.90
41678;DHT22;27364;49.026;8.712;2022-09-28T17:24:32;11.60;99.90
41678;DHT22;27364;49.026;8.712;2022-09-28T17:26:57;11.50;99.90
41678;DHT22;27364;49.026;8.712;2022-09-28T17:29:25;11.50;99.90
41678;DHT22;27364;49.026;8.712;2022-09-28T17:31:52;11.40;99.90
41678;DHT22;27364;49.026;8.712;2022-09-28T17:34:18;11.40;99.90
41678;DHT22;27364;49.026;8.712;2022-09-28T17:36:45;11.40;99.90
41678;DHT22;27364;49.026;8.712;2022-09-28T17:39:12;11.30;99.90
41678;DHT22;27364;49.026;8.712;2022-09-28T17:41:39;11.40;99.90
41678;DHT22;27364;49.026;8.712;2022-09-28T17:44:05;11.40;99.90
41678;DHT22;27364;49.026;8.712;2022-09-28T17:46:31;11.30;99.90
41678;DHT22;27364;49.026;8.712;2022-09-28T17:48:58;11.30;99.90
41678;DHT22;27364;49.026;8.712;2022-09-28T17:51:25;11.40;99.90
41678;DHT22;27364;49.026;8.712;2022-09-28T17:53:52;11.40;99.90
41678;DHT22;27364;49.026;8.712;2022-09-28T17:56:20;11.30;99.90
41678;DHT22;27364;49.026;8.712;2022-09-28T17:58:46;11.30;99.90
41678;DHT22;27364;49.026;8.712;2022-09-28T18:01:13;11.20;99.90
41678;DHT22;27364;49.026;8.712;2022-09-28T18:03:38;11.10;99.90
41678;DHT22;27364;49.026;8.712;2022-09-28T18:06:06;11.10;99.90
41678;DHT22;27364;49.026;8.712;2022-09-28T18:08:32;11.00;99.90
41678;DHT22;27364;49.026;8.712;2022-09-28T18:10:57;11.00;99.90
41678;DHT22;27364;49.026;8.712;2022-09-28T18:15:55;10.90;99.90
41678;DHT22;27364;49.026;8.712;2022-09-28T18:18:21;11.00;99.90
41678;DHT22;27364;49.026;8.712;2022-09-28T18:20:46;10.90;99.90
41678;DHT22;27364;49.026;8.712;2022-09-28T18:23:12;10.80;99.90
41678;DHT22;27364;49.026;8.712;2022-09-28T18:25:39;10.80;99.90
41678;DHT22;27364;49.026;8.712;2022-09-28T18:28:08;10.80;99.90
41678;DHT22;27364;49.026;8.712;2022-09-28T18:30:39;10.80;99.90
41678;DHT22;27364;49.026;8.712;2022-09-28T18:33:06;10.80;99.90
41678;DHT22;27364;49.026;8.712;2022-09-28T18:35:32;10.70;99.90
41678;DHT22;27364;49.026;8.712;2022-09-28T18:37:57;10.60;99.90
41678;DHT22;27364;49.026;8.712;2022-09-28T18:40:22;10.60;99.90
41678;DHT22;27364;49.026;8.712;2022-09-28T18:42:48;10.50;99.90
41678;DHT22;27364;49.026;8.712;2022-09-28T18:45:16;10.40;99.90
41678;DHT22;27364;49.026;8.712;2022-09-28T18:47:43;10.40;99.90
41678;DHT22;27364;49.026;8.712;2022-09-28T18:50:08;10.40;99.90
41678;DHT22;27364;49.026;8.712;2022-09-28T18:52:37;10.40;99.90
41678;DHT22;27364;49.026;8.712;2022-09-28T18:55:03;10.30;99.90
41678;DHT22;27364;49.026;8.712;2022-09-28T18:57:29;10.30;99.90